Time;durP1;ratioP1;P1;durP2;ratioP2;P2;SDS_P1;SDS_P2;PMS_P1;PMS_P2;Temp;Humidity;BMP_temperature;BMP_pressure;BME280_temperature;BME280_humidity;BME280_pressure;Samples;Min_cycle;Max_cycle;Signal;HPM_P1;HPM_P2
2021/09/13 00:00:09;;;;;;;2.38;1.83;;;;;;;;;;4702975;30;20206;-84
2021/09/13 00:02:36;;;;;;;1.80;1.70;;;;;;;;;;4703073;30;20238;-84
2021/09/13 00:05:06;;;;;;;1.50;1.40;;;;;;;;;;4703242;30;20207;-84
2021/09/13 00:07:36;;;;;;;2.70;1.95;;;;;;;;;;4703364;30;20574;-84
2021/09/13 00:10:09;;;;;;;2.10;2.00;;;;;;;;;;4703175;30;20202;-85
2021/09/13 00:12:37;;;;;;;2.25;2.08;;;;;;;;;;4702840;30;20320;-84
2021/09/13 00:15:10;;;;;;;2.33;2.20;;;;;;;;;;4703097;30;20214;-84
2021/09/13 00:17:39;;;;;;;1.73;1.63;;;;;;;;;;4702945;30;20206;-84
2021/09/13 00:20:08;;;;;;;3.10;1.70;;;;;;;;;;4703314;30;20221;-84
2021/09/13 00:22:50;;;;;;;2.17;1.98;;;;;;;;;;4702951;30;20245;-84
2021/09/13 00:25:57;;;;;;;2.10;1.90;;;;;;;;;;4702822;30;20206;-85
2021/09/13 00:28:41;;;;;;;2.40;1.67;;;;;;;;;;4702465;30;20206;-84
2021/09/13 00:31:13;;;;;;;2.42;2.25;;;;;;;;;;4702721;30;20641;-84
2021/09/13 00:33:45;;;;;;;3.08;2.88;;;;;;;;;;4702611;30;20242;-85
2021/09/13 00:36:19;;;;;;;2.47;2.20;;;;;;;;;;4702464;30;20257;-85
2021/09/13 00:38:49;;;;;;;2.78;2.45;;;;;;;;;;4702703;30;20190;-86
2021/09/13 00:41:28;;;;;;;2.70;2.50;;;;;;;;;;4685449;30;20199;-85
2021/09/13 00:43:59;;;;;;;2.55;2.35;;;;;;;;;;4685384;30;20243;-85
2021/09/13 00:46:56;;;;;;;3.40;3.13;;;;;;;;;;4685464;30;20225;-86
2021/09/13 00:49:38;;;;;;;2.90;2.65;;;;;;;;;;4685649;30;20302;-85
2021/09/13 00:52:08;;;;;;;3.60;2.80;;;;;;;;;;4685464;30;20689;-84
2021/09/13 00:54:37;;;;;;;2.47;2.33;;;;;;;;;;4692234;30;20554;-84
2021/09/13 00:57:07;;;;;;;2.63;2.42;;;;;;;;;;4702391;30;20301;-84
2021/09/13 00:59:43;;;;;;;3.30;3.10;;;;;;;;;;4701510;30;20198;-85
2021/09/13 01:02:11;;;;;;;3.53;3.22;;;;;;;;;;4702126;30;20230;-82
2021/09/13 01:04:51;;;;;;;3.50;3.20;;;;;;;;;;4702231;30;20198;-85
2021/09/13 01:07:25;;;;;;;4.18;3.03;;;;;;;;;;4701776;30;20220;-85
2021/09/13 01:09:54;;;;;;;2.75;2.55;;;;;;;;;;4702360;30;20198;-85
2021/09/13 01:12:24;;;;;;;3.40;3.10;;;;;;;;;;4702010;30;20238;-83
2021/09/13 01:14:51;;;;;;;3.08;2.88;;;;;;;;;;4702029;30;20202;-84
2021/09/13 01:17:25;;;;;;;3.38;3.05;;;;;;;;;;4701770;30;20647;-83
2021/09/13 01:19:54;;;;;;;3.55;3.35;;;;;;;;;;4701985;30;20199;-82
2021/09/13 01:22:24;;;;;;;3.65;3.35;;;;;;;;;;4701880;30;20611;-83
2021/09/13 01:24:57;;;;;;;2.65;2.45;;;;;;;;;;4701737;30;20221;-83
2021/09/13 01:27:25;;;;;;;2.88;2.67;;;;;;;;;;4701750;30;20199;-82
2021/09/13 01:29:53;;;;;;;2.97;2.53;;;;;;;;;;4701488;30;20694;-83
2021/09/13 01:32:22;;;;;;;2.65;2.45;;;;;;;;;;4701352;30;20239;-83
2021/09/13 01:34:51;;;;;;;2.40;2.30;;;;;;;;;;4701404;30;20229;-85
2021/09/13 01:37:19;;;;;;;2.22;2.08;;;;;;;;;;4667227;30;20222;-83
2021/09/13 01:39:48;;;;;;;2.60;2.40;;;;;;;;;;4667446;30;20207;-83
2021/09/13 01:42:26;;;;;;;3.55;3.25;;;;;;;;;;4667309;30;20236;-84
2021/09/13 01:45:07;;;;;;;3.10;2.90;;;;;;;;;;4667243;30;20207;-83
2021/09/13 01:47:42;;;;;;;3.30;3.00;;;;;;;;;;4667114;30;20197;-83
2021/09/13 01:50:15;;;;;;;3.08;2.88;;;;;;;;;;4667264;30;20559;-84
2021/09/13 01:52:44;;;;;;;3.85;3.42;;;;;;;;;;4666844;30;20248;-83
2021/09/13 01:55:14;;;;;;;3.47;3.17;;;;;;;;;;4667388;30;20652;-83
2021/09/13 01:57:56;;;;;;;3.05;2.80;;;;;;;;;;4667446;30;20202;-82
2021/09/13 02:00:34;;;;;;;2.63;2.38;;;;;;;;;;4667683;30;20224;-83
2021/09/13 02:03:08;;;;;;;3.35;3.05;;;;;;;;;;4667185;30;20226;-83
2021/09/13 02:05:35;;;;;;;3.35;3.08;;;;;;;;;;4667571;30;20222;-83
2021/09/13 02:08:04;;;;;;;3.60;3.30;;;;;;;;;;4667646;30;20698;-83
2021/09/13 02:10:33;;;;;;;3.38;3.08;;;;;;;;;;4667758;30;20596;-84
2021/09/13 02:13:16;;;;;;;2.83;2.63;;;;;;;;;;4667350;30;20714;-83
2021/09/13 02:15:44;;;;;;;3.45;3.10;;;;;;;;;;4667653;30;20207;-83
2021/09/13 02:18:13;;;;;;;3.20;3.00;;;;;;;;;;4667130;30;20216;-83
2021/09/13 02:20:42;;;;;;;3.50;3.20;;;;;;;;;;4667015;30;20215;-83
2021/09/13 02:23:11;;;;;;;3.42;3.13;;;;;;;;;;4667324;30;20323;-83
2021/09/13 02:25:39;;;;;;;3.05;2.85;;;;;;;;;;4667436;30;20289;-84
2021/09/13 02:28:17;;;;;;;4.28;3.80;;;;;;;;;;4667693;30;20211;-83
2021/09/13 02:30:47;;;;;;;3.42;3.10;;;;;;;;;;4667776;30;20206;-84
2021/09/13 02:33:17;;;;;;;3.10;2.83;;;;;;;;;;4666131;30;20251;-85
2021/09/13 02:35:44;;;;;;;5.28;3.15;;;;;;;;;;4676966;30;20328;-83
2021/09/13 02:38:13;;;;;;;2.80;2.60;;;;;;;;;;4701474;30;20218;-83
2021/09/13 02:40:42;;;;;;;3.22;2.95;;;;;;;;;;4701182;30;20207;-83
2021/09/13 02:43:11;;;;;;;3.38;3.08;;;;;;;;;;4701451;30;20317;-84
2021/09/13 02:45:41;;;;;;;4.57;3.20;;;;;;;;;;4701652;30;20214;-83
2021/09/13 02:48:11;;;;;;;2.95;2.75;;;;;;;;;;4701597;30;20210;-83
2021/09/13 02:50:41;;;;;;;3.90;3.60;;;;;;;;;;4701349;30;20218;-83
2021/09/13 02:53:08;;;;;;;4.88;3.60;;;;;;;;;;4701074;30;20237;-83
2021/09/13 02:55:37;;;;;;;3.42;3.17;;;;;;;;;;4701594;30;20198;-83
2021/09/13 02:58:05;;;;;;;4.35;4.05;;;;;;;;;;4701992;30;20221;-84
2021/09/13 03:00:35;;;;;;;4.05;3.67;;;;;;;;;;4701836;30;20221;-83
2021/09/13 03:03:04;;;;;;;4.32;3.97;;;;;;;;;;4701152;30;20238;-83
2021/09/13 03:05:31;;;;;;;2.90;2.70;;;;;;;;;;4701409;30;20203;-83
2021/09/13 03:08:06;;;;;;;3.78;3.15;;;;;;;;;;4701241;30;20195;-83
2021/09/13 03:10:34;;;;;;;3.10;2.80;;;;;;;;;;4701375;30;20224;-84
2021/09/13 03:13:02;;;;;;;2.70;2.50;;;;;;;;;;4701476;30;20238;-84
2021/09/13 03:15:38;;;;;;;2.20;2.10;;;;;;;;;;4701257;30;20607;-83
2021/09/13 03:18:07;;;;;;;3.05;2.83;;;;;;;;;;4702684;30;20904;-84
2021/09/13 03:20:34;;;;;;;3.00;2.80;;;;;;;;;;4702969;30;20205;-84
2021/09/13 03:23:02;;;;;;;3.53;3.22;;;;;;;;;;4704512;30;20230;-83
2021/09/13 03:25:38;;;;;;;3.67;3.38;;;;;;;;;;4705417;30;20647;-83
2021/09/13 03:28:06;;;;;;;4.22;3.85;;;;;;;;;;4704791;30;20722;-84
2021/09/13 03:30:41;;;;;;;4.65;3.97;;;;;;;;;;4704387;30;20593;-83
2021/09/13 03:33:09;;;;;;;4.50;4.10;;;;;;;;;;4704942;30;20280;-84
2021/09/13 03:35:37;;;;;;;5.05;4.65;;;;;;;;;;4702950;30;20250;-84
2021/09/13 03:38:05;;;;;;;4.65;4.25;;;;;;;;;;4703346;30;20214;-85
2021/09/13 03:40:40;;;;;;;6.25;4.50;;;;;;;;;;4703819;30;20647;-84
2021/09/13 03:43:13;;;;;;;6.07;5.18;;;;;;;;;;4703710;30;20238;-84
2021/09/13 03:45:41;;;;;;;4.82;4.43;;;;;;;;;;4703490;30;20348;-84
2021/09/13 03:48:10;;;;;;;5.22;4.45;;;;;;;;;;4703184;30;20199;-84
2021/09/13 03:50:43;;;;;;;4.63;4.22;;;;;;;;;;4703151;30;20257;-83
2021/09/13 03:53:11;;;;;;;5.18;4.25;;;;;;;;;;4703578;30;20242;-84
2021/09/13 03:55:46;;;;;;;5.25;4.78;;;;;;;;;;4703071;30;20325;-83
2021/09/13 03:58:13;;;;;;;5.60;5.03;;;;;;;;;;4702832;30;20268;-83
2021/09/13 04:00:41;;;;;;;5.15;4.55;;;;;;;;;;4703829;30;20294;-83
2021/09/13 04:03:11;;;;;;;3.22;3.03;;;;;;;;;;4704048;30;20325;-83
2021/09/13 04:05:43;;;;;;;2.15;2.05;;;;;;;;;;4704020;30;20218;-83
2021/09/13 04:08:17;;;;;;;2.47;2.28;;;;;;;;;;4703377;30;20258;-83
2021/09/13 04:11:01;;;;;;;2.60;2.40;;;;;;;;;;4703299;30;20206;-82
2021/09/13 04:13:29;;;;;;;3.42;3.13;;;;;;;;;;4703178;30;20321;-82
2021/09/13 04:15:56;;;;;;;4.10;3.70;;;;;;;;;;4703368;30;20305;-83
2021/09/13 04:18:26;;;;;;;3.35;2.88;;;;;;;;;;4703414;30;20551;-83
2021/09/13 04:20:53;;;;;;;3.80;3.50;;;;;;;;;;4703451;30;20713;-83
2021/09/13 04:23:22;;;;;;;4.15;3.75;;;;;;;;;;4704178;30;20710;-83
2021/09/13 04:25:50;;;;;;;3.85;3.55;;;;;;;;;;4704104;30;20697;-83
2021/09/13 04:28:18;;;;;;;4.10;3.70;;;;;;;;;;4703404;30;20202;-83
2021/09/13 04:30:46;;;;;;;3.63;3.03;;;;;;;;;;4703157;30;20191;-83
2021/09/13 04:33:16;;;;;;;3.53;2.40;;;;;;;;;;4702195;30;20253;-83
2021/09/13 04:35:45;;;;;;;2.53;2.33;;;;;;;;;;4702706;30;20325;-83
2021/09/13 04:38:12;;;;;;;2.47;2.28;;;;;;;;;;4703220;30;20229;-83
2021/09/13 04:40:40;;;;;;;2.53;2.33;;;;;;;;;;4703614;30;20218;-83
2021/09/13 04:43:09;;;;;;;2.83;2.63;;;;;;;;;;4702935;30;20703;-83
2021/09/13 04:45:39;;;;;;;2.05;1.95;;;;;;;;;;4702624;30;20249;-82
2021/09/13 04:48:07;;;;;;;2.35;2.03;;;;;;;;;;4702779;30;20298;-83
2021/09/13 04:50:35;;;;;;;2.30;2.20;;;;;;;;;;4706018;30;20210;-82
2021/09/13 04:53:04;;;;;;;4.18;3.80;;;;;;;;;;4702322;30;20234;-83
2021/09/13 04:55:31;;;;;;;2.85;2.65;;;;;;;;;;4702180;30;20830;-82
2021/09/13 04:58:00;;;;;;;3.05;2.75;;;;;;;;;;4703083;30;20202;-83
2021/09/13 05:00:28;;;;;;;4.07;3.67;;;;;;;;;;4702667;30;20221;-82
2021/09/13 05:02:56;;;;;;;3.42;3.10;;;;;;;;;;4702672;30;20242;-82
2021/09/13 05:05:23;;;;;;;2.70;2.50;;;;;;;;;;4702976;30;20202;-83
2021/09/13 05:07:52;;;;;;;3.20;2.95;;;;;;;;;;4702399;30;20199;-82
2021/09/13 05:10:23;;;;;;;3.00;2.80;;;;;;;;;;4701416;30;20222;-82
2021/09/13 05:12:52;;;;;;;3.05;2.85;;;;;;;;;;4702125;30;20237;-82
2021/09/13 05:15:26;;;;;;;2.65;2.45;;;;;;;;;;4702114;30;20223;-82
2021/09/13 05:18:06;;;;;;;2.60;2.40;;;;;;;;;;4702146;30;20298;-83
2021/09/13 05:20:33;;;;;;;2.70;2.50;;;;;;;;;;4703119;30;20214;-84
2021/09/13 05:23:02;;;;;;;1.83;1.73;;;;;;;;;;4702638;30;20234;-85
2021/09/13 05:25:31;;;;;;;2.95;2.70;;;;;;;;;;4702979;30;20574;-84
2021/09/13 05:27:58;;;;;;;2.58;2.38;;;;;;;;;;4702721;30;20206;-85
2021/09/13 05:30:26;;;;;;;2.28;2.17;;;;;;;;;;4703169;30;20203;-83
2021/09/13 05:32:54;;;;;;;2.15;2.05;;;;;;;;;;4701280;30;20312;-83
2021/09/13 05:35:21;;;;;;;2.65;2.45;;;;;;;;;;4701403;30;20719;-82
2021/09/13 05:37:49;;;;;;;2.00;1.90;;;;;;;;;;4702103;30;20199;-84
2021/09/13 05:40:16;;;;;;;2.33;2.22;;;;;;;;;;4701674;30;20210;-83
2021/09/13 05:42:45;;;;;;;2.70;2.50;;;;;;;;;;4701836;30;20722;-83
2021/09/13 05:45:13;;;;;;;2.50;2.30;;;;;;;;;;4701498;30;20195;-84
2021/09/13 05:47:40;;;;;;;2.58;2.38;;;;;;;;;;4700370;30;20276;-82
2021/09/13 05:50:09;;;;;;;2.72;2.53;;;;;;;;;;4700757;30;20682;-83
2021/09/13 05:52:37;;;;;;;2.92;2.72;;;;;;;;;;4702325;30;20238;-84
2021/09/13 05:55:06;;;;;;;3.08;2.88;;;;;;;;;;4700558;30;20225;-83
2021/09/13 05:57:33;;;;;;;3.47;3.00;;;;;;;;;;4697567;30;20219;-83
2021/09/13 06:00:03;;;;;;;2.45;2.35;;;;;;;;;;4696375;30;20217;-83
2021/09/13 06:02:34;;;;;;;2.80;2.60;;;;;;;;;;4700986;30;20261;-83
2021/09/13 06:05:01;;;;;;;3.30;3.10;;;;;;;;;;4701964;30;20217;-82
2021/09/13 06:07:29;;;;;;;2.63;2.42;;;;;;;;;;4701215;30;20631;-82
2021/09/13 06:09:56;;;;;;;3.00;2.80;;;;;;;;;;4700742;30;20249;-82
2021/09/13 06:12:24;;;;;;;3.58;3.28;;;;;;;;;;4700077;30;20236;-82
2021/09/13 06:14:55;;;;;;;3.58;3.28;;;;;;;;;;4702078;30;20597;-84
2021/09/13 06:17:24;;;;;;;2.67;2.47;;;;;;;;;;4702611;30;20199;-83
2021/09/13 06:19:52;;;;;;;2.15;1.98;;;;;;;;;;4696217;30;20242;-84
2021/09/13 06:22:19;;;;;;;3.78;3.47;;;;;;;;;;4700920;30;20258;-85
2021/09/13 06:24:47;;;;;;;3.90;3.60;;;;;;;;;;4699267;30;20215;-83
2021/09/13 06:27:14;;;;;;;2.60;2.40;;;;;;;;;;4700620;30;20198;-85
2021/09/13 06:29:42;;;;;;;2.20;2.10;;;;;;;;;;4699875;30;20624;-83
2021/09/13 06:32:10;;;;;;;3.13;2.55;;;;;;;;;;4700545;30;20234;-84
2021/09/13 06:34:39;;;;;;;3.13;2.90;;;;;;;;;;4699648;30;20210;-84
2021/09/13 06:37:06;;;;;;;2.60;2.40;;;;;;;;;;4700714;30;20285;-85
2021/09/13 06:39:34;;;;;;;2.75;2.55;;;;;;;;;;4700876;30;20207;-84
2021/09/13 06:42:01;;;;;;;3.00;2.80;;;;;;;;;;4699971;30;20262;-84
2021/09/13 06:44:30;;;;;;;3.47;3.28;;;;;;;;;;4701595;30;20209;-84
2021/09/13 06:47:06;;;;;;;3.55;3.25;;;;;;;;;;4700665;30;20208;-83
2021/09/13 06:49:34;;;;;;;3.45;3.15;;;;;;;;;;4686626;30;20203;-83
2021/09/13 06:52:04;;;;;;;3.28;3.08;;;;;;;;;;4682907;30;20246;-82
2021/09/13 06:54:32;;;;;;;4.03;3.72;;;;;;;;;;4682198;30;20202;-82
2021/09/13 06:57:00;;;;;;;4.43;4.07;;;;;;;;;;4681510;30;20234;-85
2021/09/13 06:59:30;;;;;;;4.93;4.50;;;;;;;;;;4695042;30;20225;-85
2021/09/13 07:01:57;;;;;;;3.83;3.58;;;;;;;;;;4698882;30;20289;-86
2021/09/13 07:04:25;;;;;;;4.63;4.25;;;;;;;;;;4699426;30;20222;-83
2021/09/13 07:06:53;;;;;;;3.55;3.20;;;;;;;;;;4699272;30;20221;-82
2021/09/13 07:09:22;;;;;;;4.50;4.20;;;;;;;;;;4697865;30;20212;-82
2021/09/13 07:11:49;;;;;;;4.72;4.32;;;;;;;;;;4693228;30;20215;-83
2021/09/13 07:14:17;;;;;;;4.20;3.67;;;;;;;;;;4699297;30;20217;-83
2021/09/13 07:16:44;;;;;;;3.83;3.53;;;;;;;;;;4700413;30;20226;-84
2021/09/13 07:19:12;;;;;;;2.85;2.65;;;;;;;;;;4700573;30;20215;-84
2021/09/13 07:21:40;;;;;;;3.55;3.25;;;;;;;;;;4700418;30;20693;-84
2021/09/13 07:24:07;;;;;;;3.25;2.97;;;;;;;;;;4699981;30;20206;-82
2021/09/13 07:26:36;;;;;;;3.95;3.65;;;;;;;;;;4698832;30;20675;-83
2021/09/13 07:29:04;;;;;;;4.65;4.25;;;;;;;;;;4699041;30;20656;-84
2021/09/13 07:31:31;;;;;;;5.40;4.38;;;;;;;;;;4699502;30;20207;-83
2021/09/13 07:33:59;;;;;;;5.75;5.10;;;;;;;;;;4699055;30;20748;-82
2021/09/13 07:36:26;;;;;;;4.93;4.53;;;;;;;;;;4699130;30;20282;-84
2021/09/13 07:38:54;;;;;;;4.85;4.45;;;;;;;;;;4698993;30;20246;-83
2021/09/13 07:41:21;;;;;;;3.53;3.10;;;;;;;;;;4699218;30;20195;-84
2021/09/13 07:43:50;;;;;;;5.80;5.30;;;;;;;;;;4698756;30;20238;-82
2021/09/13 07:46:18;;;;;;;5.22;4.72;;;;;;;;;;4699779;30;20302;-83
2021/09/13 07:48:45;;;;;;;3.78;3.47;;;;;;;;;;4699006;30;20216;-83
2021/09/13 07:51:12;;;;;;;5.03;4.63;;;;;;;;;;4700744;30;20215;-84
2021/09/13 07:53:40;;;;;;;4.60;3.53;;;;;;;;;;4697731;30;20424;-84
2021/09/13 07:56:07;;;;;;;3.63;3.33;;;;;;;;;;4693476;30;20230;-84
2021/09/13 07:58:35;;;;;;;5.13;3.90;;;;;;;;;;4694672;30;20219;-83
2021/09/13 08:01:04;;;;;;;4.65;4.25;;;;;;;;;;4701023;30;20674;-84
2021/09/13 08:03:31;;;;;;;5.65;5.15;;;;;;;;;;4696745;30;20668;-82
2021/09/13 08:05:59;;;;;;;4.40;4.00;;;;;;;;;;4700642;30;20211;-83
2021/09/13 08:08:26;;;;;;;4.20;3.83;;;;;;;;;;4700081;30;20215;-84
2021/09/13 08:10:54;;;;;;;3.97;3.67;;;;;;;;;;4702735;30;20222;-85
2021/09/13 08:13:21;;;;;;;6.80;5.60;;;;;;;;;;4702326;30;20240;-84
2021/09/13 08:15:49;;;;;;;4.82;4.43;;;;;;;;;;4702499;30;20195;-84
2021/09/13 08:18:20;;;;;;;4.53;4.18;;;;;;;;;;4701400;30;20589;-83
2021/09/13 08:20:47;;;;;;;4.97;4.45;;;;;;;;;;4701969;30;20300;-83
2021/09/13 08:23:15;;;;;;;4.82;4.40;;;;;;;;;;4702033;30;20607;-85
2021/09/13 08:25:42;;;;;;;6.55;5.95;;;;;;;;;;4701908;30;20191;-83
2021/09/13 08:28:13;;;;;;;4.75;4.35;;;;;;;;;;4698386;30;20207;-82
2021/09/13 08:30:41;;;;;;;3.88;3.58;;;;;;;;;;4685019;30;20207;-83
2021/09/13 08:33:09;;;;;;;3.92;3.45;;;;;;;;;;4687774;30;20230;-83
2021/09/13 08:35:38;;;;;;;6.05;5.55;;;;;;;;;;4701954;30;20679;-83
2021/09/13 08:38:05;;;;;;;6.68;4.88;;;;;;;;;;4701644;30;20582;-83
2021/09/13 08:40:33;;;;;;;4.50;4.10;;;;;;;;;;4702488;30;20281;-84
2021/09/13 08:43:02;;;;;;;5.00;4.55;;;;;;;;;;4701618;30;20234;-85
2021/09/13 08:45:35;;;;;;;5.50;5.00;;;;;;;;;;4702034;30;20211;-83
2021/09/13 08:48:07;;;;;;;6.28;5.68;;;;;;;;;;4702137;30;20213;-83
2021/09/13 08:50:41;;;;;;;6.72;6.10;;;;;;;;;;4701278;30;20229;-83
2021/09/13 08:53:14;;;;;;;6.80;6.20;;;;;;;;;;4701311;30;20759;-83
2021/09/13 08:55:44;;;;;;;5.88;5.40;;;;;;;;;;4702095;30;20239;-84
2021/09/13 08:58:15;;;;;;;5.35;4.70;;;;;;;;;;4700999;30;20222;-84
2021/09/13 09:00:44;;;;;;;7.03;6.38;;;;;;;;;;4701918;30;20191;-85
2021/09/13 09:03:11;;;;;;;6.22;5.72;;;;;;;;;;4700172;30;20246;-84
2021/09/13 09:05:42;;;;;;;4.57;4.15;;;;;;;;;;4700628;30;20222;-84
2021/09/13 09:08:12;;;;;;;4.55;4.15;;;;;;;;;;4700666;30;20301;-85
2021/09/13 09:10:40;;;;;;;4.95;4.55;;;;;;;;;;4700636;30;20215;-85
2021/09/13 09:13:13;;;;;;;3.83;3.53;;;;;;;;;;4701014;30;20269;-84
2021/09/13 09:15:56;;;;;;;4.45;4.15;;;;;;;;;;4701278;30;20282;-85
2021/09/13 09:18:25;;;;;;;4.57;4.18;;;;;;;;;;4700241;30;20297;-84
2021/09/13 09:20:53;;;;;;;3.53;3.33;;;;;;;;;;4701075;30;20210;-85
2021/09/13 09:23:22;;;;;;;4.40;4.00;;;;;;;;;;4701220;30;20754;-85
2021/09/13 09:25:53;;;;;;;8.77;4.97;;;;;;;;;;4700919;30;20224;-84
2021/09/13 09:28:21;;;;;;;3.60;3.30;;;;;;;;;;4697254;30;20230;-85
2021/09/13 09:30:50;;;;;;;5.03;4.63;;;;;;;;;;4684523;30;20215;-85
2021/09/13 09:33:19;;;;;;;4.97;4.57;;;;;;;;;;4684881;30;20331;-85
2021/09/13 09:35:49;;;;;;;4.95;4.55;;;;;;;;;;4683305;30;20719;-85
2021/09/13 09:38:36;;;;;;;6.60;6.00;;;;;;;;;;4688092;30;20336;-86
2021/09/13 09:41:09;;;;;;;5.30;4.90;;;;;;;;;;4700176;30;20305;-85
2021/09/13 09:43:55;;;;;;;4.32;3.92;;;;;;;;;;4700425;30;20238;-85
2021/09/13 09:46:23;;;;;;;4.03;3.70;;;;;;;;;;4700260;30;20301;-85
2021/09/13 09:48:51;;;;;;;3.33;3.13;;;;;;;;;;4691006;30;20212;-85
2021/09/13 09:51:29;;;;;;;3.45;3.00;;;;;;;;;;4682959;30;20215;-85
2021/09/13 09:54:01;;;;;;;3.95;3.65;;;;;;;;;;4682846;30;20647;-86
2021/09/13 09:56:28;;;;;;;2.67;2.47;;;;;;;;;;4683057;30;20286;-85
2021/09/13 09:59:04;;;;;;;3.22;2.92;;;;;;;;;;4692958;30;20238;-85
2021/09/13 10:01:37;;;;;;;3.38;3.08;;;;;;;;;;4700422;30;20222;-85
2021/09/13 10:04:20;;;;;;;3.35;3.13;;;;;;;;;;4700074;30;20230;-86
2021/09/13 10:06:51;;;;;;;2.83;2.53;;;;;;;;;;4700176;30;20289;-86
2021/09/13 10:09:21;;;;;;;2.83;2.63;;;;;;;;;;4700219;30;20210;-86
2021/09/13 10:11:51;;;;;;;1.90;1.80;;;;;;;;;;4699692;30;20211;-86
2021/09/13 10:14:22;;;;;;;2.53;2.33;;;;;;;;;;4700291;30;20229;-86
2021/09/13 10:16:50;;;;;;;2.50;2.30;;;;;;;;;;4700176;30;20210;-86
2021/09/13 10:19:20;;;;;;;2.65;2.20;;;;;;;;;;4700477;30;20245;-87
2021/09/13 10:21:48;;;;;;;1.98;1.88;;;;;;;;;;4700121;30;20222;-86
2021/09/13 10:24:20;;;;;;;1.92;1.83;;;;;;;;;;4700077;30;20249;-86
2021/09/13 10:26:50;;;;;;;2.38;2.20;;;;;;;;;;4699789;30;20218;-87
2021/09/13 10:29:26;;;;;;;2.20;2.10;;;;;;;;;;4699885;30;20309;-87
2021/09/13 10:32:08;;;;;;;2.55;2.40;;;;;;;;;;4699119;30;20224;-86
2021/09/13 10:34:47;;;;;;;2.08;1.98;;;;;;;;;;4699632;30;20214;-87
2021/09/13 10:37:16;;;;;;;2.10;2.00;;;;;;;;;;4699212;30;20250;-87
2021/09/13 10:40:02;;;;;;;2.22;2.03;;;;;;;;;;4699090;30;20329;-87
2021/09/13 10:42:42;;;;;;;3.47;3.10;;;;;;;;;;4699279;30;20233;-87
2021/09/13 10:45:28;;;;;;;2.28;2.10;;;;;;;;;;4699407;30;20206;-86
2021/09/13 10:48:08;;;;;;;2.35;2.25;;;;;;;;;;4698132;30;20246;-87
2021/09/13 10:50:42;;;;;;;2.53;2.33;;;;;;;;;;4699397;30;20218;-86
2021/09/13 10:53:35;;;;;;;1.60;1.50;;;;;;;;;;4699304;30;20674;-87
2021/09/13 10:56:07;;;;;;;2.78;2.03;;;;;;;;;;4699336;30;20222;-86
2021/09/13 10:58:42;;;;;;;2.00;1.90;;;;;;;;;;4698989;30;20306;-87
2021/09/13 11:01:21;;;;;;;1.80;1.70;;;;;;;;;;4699737;30;20228;-86
2021/09/13 11:03:54;;;;;;;2.38;2.17;;;;;;;;;;4699169;30;20230;-87
2021/09/13 11:06:46;;;;;;;1.90;1.80;;;;;;;;;;4699183;30;20218;-86
2021/09/13 11:09:22;;;;;;;2.53;2.30;;;;;;;;;;4699192;30;20211;-87
2021/09/13 11:12:00;;;;;;;4.50;1.70;;;;;;;;;;4699362;30;20292;-86
2021/09/13 11:14:31;;;;;;;1.95;1.85;;;;;;;;;;4698964;30;20682;-87
2021/09/13 11:17:02;;;;;;;1.40;1.30;;;;;;;;;;4699077;30;20226;-86
2021/09/13 11:19:31;;;;;;;2.47;1.90;;;;;;;;;;4699036;30;20613;-88
2021/09/13 11:22:01;;;;;;;2.03;1.83;;;;;;;;;;4699201;30;20218;-86
2021/09/13 11:24:30;;;;;;;1.73;1.63;;;;;;;;;;4700286;30;20231;-87
2021/09/13 11:27:01;;;;;;;2.03;1.92;;;;;;;;;;4699566;30;20202;-87
2021/09/13 11:29:30;;;;;;;2.40;2.20;;;;;;;;;;4700623;30;20219;-86
2021/09/13 11:32:00;;;;;;;2.10;2.00;;;;;;;;;;4699487;30;20205;-87
2021/09/13 11:34:39;;;;;;;2.40;2.15;;;;;;;;;;4699296;30;20215;-87
2021/09/13 11:37:09;;;;;;;2.20;2.10;;;;;;;;;;4700461;30;20757;-86
2021/09/13 11:39:42;;;;;;;2.20;1.92;;;;;;;;;;4699405;30;20242;-86
2021/09/13 11:42:16;;;;;;;2.28;2.17;;;;;;;;;;4699207;30;20242;-86
2021/09/13 11:44:46;;;;;;;2.13;2.03;;;;;;;;;;4702756;30;20206;-86
2021/09/13 11:47:16;;;;;;;2.20;2.10;;;;;;;;;;4703892;30;20678;-86
2021/09/13 11:49:45;;;;;;;2.33;2.13;;;;;;;;;;4703552;30;20717;-87
2021/09/13 11:52:22;;;;;;;1.88;1.77;;;;;;;;;;4704018;30;20226;-87
2021/09/13 11:54:57;;;;;;;1.90;1.80;;;;;;;;;;4704239;30;20297;-86
2021/09/13 11:57:44;;;;;;;1.80;1.70;;;;;;;;;;4704123;30;20218;-86
2021/09/13 12:00:20;;;;;;;2.58;2.38;;;;;;;;;;4702560;30;20337;-86
2021/09/13 12:02:50;;;;;;;1.60;1.50;;;;;;;;;;4703483;30;20265;-86
2021/09/13 12:05:20;;;;;;;1.38;1.38;;;;;;;;;;4705134;30;20225;-86
2021/09/13 12:07:49;;;;;;;1.40;1.40;;;;;;;;;;4705860;30;20206;-87
2021/09/13 12:10:20;;;;;;;1.33;1.27;;;;;;;;;;4703693;30;20217;-85
2021/09/13 12:12:51;;;;;;;1.98;1.88;;;;;;;;;;4704605;30;20248;-86
2021/09/13 12:15:21;;;;;;;2.33;2.22;;;;;;;;;;4703938;30;20211;-85
2021/09/13 12:17:50;;;;;;;1.77;1.67;;;;;;;;;;4704506;30;20209;-86
2021/09/13 12:20:23;;;;;;;1.65;1.55;;;;;;;;;;4703199;30;20230;-86
2021/09/13 12:23:00;;;;;;;1.85;1.75;;;;;;;;;;4701935;30;20240;-85
2021/09/13 12:25:28;;;;;;;1.77;1.67;;;;;;;;;;4703255;30;20218;-85
2021/09/13 12:28:03;;;;;;;1.73;1.63;;;;;;;;;;4702954;30;20225;-87
2021/09/13 12:30:32;;;;;;;2.17;1.98;;;;;;;;;;4703236;30;20213;-86
2021/09/13 12:33:01;;;;;;;2.00;1.90;;;;;;;;;;4703254;30;20235;-86
2021/09/13 12:35:38;;;;;;;2.20;2.10;;;;;;;;;;4703605;30;20218;-86
2021/09/13 12:38:11;;;;;;;2.30;2.10;;;;;;;;;;4702606;30;20216;-86
2021/09/13 12:40:54;;;;;;;1.90;1.80;;;;;;;;;;4705712;30;20237;-88
2021/09/13 12:43:25;;;;;;;2.28;2.10;;;;;;;;;;4704026;30;20322;-88
2021/09/13 12:46:05;;;;;;;1.92;1.83;;;;;;;;;;4704049;30;20261;-86
2021/09/13 12:48:34;;;;;;;2.50;2.30;;;;;;;;;;4703685;30;20305;-86
2021/09/13 12:51:02;;;;;;;2.85;2.30;;;;;;;;;;4702995;30;20221;-87
2021/09/13 12:53:30;;;;;;;1.80;1.70;;;;;;;;;;4705252;30;20582;-86
2021/09/13 12:56:00;;;;;;;1.58;1.48;;;;;;;;;;4704001;30;20741;-85
2021/09/13 12:58:35;;;;;;;1.85;1.75;;;;;;;;;;4703680;30;20301;-86
2021/09/13 13:01:05;;;;;;;1.65;1.55;;;;;;;;;;4704377;30;20414;-86
2021/09/13 13:03:34;;;;;;;1.95;1.85;;;;;;;;;;4702583;30;20948;-86
2021/09/13 13:06:15;;;;;;;2.20;2.10;;;;;;;;;;4704228;30;20215;-85
2021/09/13 13:08:42;;;;;;;2.10;2.00;;;;;;;;;;4706681;30;20645;-86
2021/09/13 13:11:10;;;;;;;1.90;1.80;;;;;;;;;;4702547;30;20214;-86
2021/09/13 13:13:39;;;;;;;1.90;1.80;;;;;;;;;;4705034;30;20329;-86
2021/09/13 13:16:07;;;;;;;2.42;2.28;;;;;;;;;;4704320;30;20219;-86
2021/09/13 13:18:36;;;;;;;2.00;1.90;;;;;;;;;;4702431;30;20313;-87
2021/09/13 13:21:03;;;;;;;2.08;1.98;;;;;;;;;;4702149;30;20234;-86
2021/09/13 13:23:30;;;;;;;1.85;1.75;;;;;;;;;;4705389;30;20238;-86
2021/09/13 13:25:58;;;;;;;1.73;1.63;;;;;;;;;;4700311;30;20229;-85
2021/09/13 13:28:35;;;;;;;2.70;2.58;;;;;;;;;;4697166;30;20760;-87
2021/09/13 13:31:04;;;;;;;2.00;1.90;;;;;;;;;;4686254;30;20191;-84
2021/09/13 13:33:32;;;;;;;1.52;1.45;;;;;;;;;;4685607;30;20242;-85
2021/09/13 13:36:00;;;;;;;1.58;1.48;;;;;;;;;;4700537;30;20238;-85
2021/09/13 13:38:28;;;;;;;2.00;1.90;;;;;;;;;;4702046;30;20218;-85
2021/09/13 13:40:57;;;;;;;1.50;1.40;;;;;;;;;;4703528;30;20223;-86
2021/09/13 13:43:24;;;;;;;2.00;1.90;;;;;;;;;;4701073;30;20241;-86
2021/09/13 13:45:51;;;;;;;1.48;1.38;;;;;;;;;;4701864;30;20203;-87
2021/09/13 13:48:20;;;;;;;2.08;1.98;;;;;;;;;;4702028;30;20221;-86
2021/09/13 13:50:48;;;;;;;2.47;2.28;;;;;;;;;;4700749;30;20221;-86
2021/09/13 13:53:15;;;;;;;2.53;2.33;;;;;;;;;;4700784;30;20768;-86
2021/09/13 13:55:42;;;;;;;1.95;1.85;;;;;;;;;;4704661;30;20214;-86
2021/09/13 13:58:10;;;;;;;1.75;1.65;;;;;;;;;;4705829;30;20221;-86
2021/09/13 14:00:37;;;;;;;1.42;1.33;;;;;;;;;;4700923;30;20230;-85
2021/09/13 14:03:06;;;;;;;1.75;1.65;;;;;;;;;;4703335;30;20741;-86
2021/09/13 14:05:35;;;;;;;1.55;1.45;;;;;;;;;;4702821;30;20215;-86
2021/09/13 14:08:02;;;;;;;2.85;2.00;;;;;;;;;;4701487;30;20302;-86
2021/09/13 14:10:30;;;;;;;2.83;2.63;;;;;;;;;;4703185;30;20214;-85
2021/09/13 14:12:58;;;;;;;1.88;1.77;;;;;;;;;;4700994;30;20238;-86
2021/09/13 14:15:26;;;;;;;1.85;1.75;;;;;;;;;;4700003;30;20218;-86
2021/09/13 14:17:53;;;;;;;1.60;1.50;;;;;;;;;;4700700;30;20245;-86
2021/09/13 14:20:21;;;;;;;2.30;2.10;;;;;;;;;;4700152;30;20238;-86
2021/09/13 14:22:50;;;;;;;2.60;2.40;;;;;;;;;;4700993;30;20240;-86
2021/09/13 14:25:17;;;;;;;2.22;2.13;;;;;;;;;;4701695;30;20212;-83
2021/09/13 14:27:45;;;;;;;1.95;1.85;;;;;;;;;;4700522;30;20218;-86
2021/09/13 14:30:13;;;;;;;1.98;1.88;;;;;;;;;;4699883;30;20214;-87
2021/09/13 14:32:41;;;;;;;1.60;1.50;;;;;;;;;;4700152;30;20241;-87
2021/09/13 14:35:09;;;;;;;1.92;1.83;;;;;;;;;;4698953;30;20686;-86
2021/09/13 14:37:37;;;;;;;1.75;1.65;;;;;;;;;;4699406;30;20625;-86
2021/09/13 14:40:07;;;;;;;2.00;1.85;;;;;;;;;;4699490;30;20221;-86
2021/09/13 14:42:34;;;;;;;1.85;1.75;;;;;;;;;;4699491;30;20230;-86
2021/09/13 14:45:02;;;;;;;1.90;1.67;;;;;;;;;;4699428;30;20210;-86
2021/09/13 14:47:32;;;;;;;2.97;1.90;;;;;;;;;;4699255;30;20660;-86
2021/09/13 14:50:01;;;;;;;2.30;2.17;;;;;;;;;;4699739;30;20265;-84
2021/09/13 14:52:29;;;;;;;2.38;2.28;;;;;;;;;;4699444;30;20226;-85
2021/09/13 14:54:56;;;;;;;2.35;2.22;;;;;;;;;;4699431;30;20221;-85
2021/09/13 14:57:25;;;;;;;2.55;2.15;;;;;;;;;;4699166;30;20217;-85
2021/09/13 14:59:52;;;;;;;2.58;2.00;;;;;;;;;;4699071;30;20297;-87
2021/09/13 15:02:21;;;;;;;1.92;1.83;;;;;;;;;;4699024;30;20321;-87